sensor_id;sensor_type;location;lat;lon;timestamp;temperature;humidity
25568;DHT22;13455;51.480;7.594;2023-05-10T00:00:37;14.80;99.90
25568;DHT22;13455;51.480;7.594;2023-05-10T00:03:03;14.60;99.90
25568;DHT22;13455;51.480;7.594;2023-05-10T00:05:30;14.40;99.90
25568;DHT22;13455;51.480;7.594;2023-05-10T00:07:56;14.40;99.90
25568;DHT22;13455;51.480;7.594;2023-05-10T00:10:21;14.20;99.90
25568;DHT22;13455;51.480;7.594;2023-05-10T00:12:47;14.10;99.90
25568;DHT22;13455;51.480;7.594;2023-05-10T00:15:13;14.40;99.90
25568;DHT22;13455;51.480;7.594;2023-05-10T00:17:38;14.30;99.90
25568;DHT22;13455;51.480;7.594;2023-05-10T00:20:04;14.40;99.90
25568;DHT22;13455;51.480;7.594;2023-05-10T00:24:57;14.20;99.90
25568;DHT22;13455;51.480;7.594;2023-05-10T00:27:23;14.00;99.90
25568;DHT22;13455;51.480;7.594;2023-05-10T00:29:48;14.10;99.90
25568;DHT22;13455;51.480;7.594;2023-05-10T00:32:14;14.00;99.90
25568;DHT22;13455;51.480;7.594;2023-05-10T00:34:40;14.00;99.90
25568;DHT22;13455;51.480;7.594;2023-05-10T00:37:06;14.00;99.90
25568;DHT22;13455;51.480;7.594;2023-05-10T00:39:31;14.00;99.90
25568;DHT22;13455;51.480;7.594;2023-05-10T00:41:57;14.00;99.90
25568;DHT22;13455;51.480;7.594;2023-05-10T00:44:22;14.10;99.90
25568;DHT22;13455;51.480;7.594;2023-05-10T00:46:49;14.10;99.90
25568;DHT22;13455;51.480;7.594;2023-05-10T00:49:15;14.00;99.90
25568;DHT22;13455;51.480;7.594;2023-05-10T00:51:41;14.00;99.90
25568;DHT22;13455;51.480;7.594;2023-05-10T00:54:10;13.90;99.90
25568;DHT22;13455;51.480;7.594;2023-05-10T00:56:36;14.00;99.90
25568;DHT22;13455;51.480;7.594;2023-05-10T00:59:03;13.90;99.90
25568;DHT22;13455;51.480;7.594;2023-05-10T01:01:28;13.90;99.90
25568;DHT22;13455;51.480;7.594;2023-05-10T01:03:55;13.90;99.90
25568;DHT22;13455;51.480;7.594;2023-05-10T01:06:20;13.90;99.90
25568;DHT22;13455;51.480;7.594;2023-05-10T01:08:46;14.00;99.90
25568;DHT22;13455;51.480;7.594;2023-05-10T01:11:13;13.90;99.90
25568;DHT22;13455;51.480;7.594;2023-05-10T01:13:40;13.90;99.90
25568;DHT22;13455;51.480;7.594;2023-05-10T01:16:07;13.90;99.90
25568;DHT22;13455;51.480;7.594;2023-05-10T01:18:35;13.90;99.90
25568;DHT22;13455;51.480;7.594;2023-05-10T01:29:50;13.80;99.90
25568;DHT22;13455;51.480;7.594;2023-05-10T01:32:48;13.80;99.90
25568;DHT22;13455;51.480;7.594;2023-05-10T01:35:40;13.80;99.90
25568;DHT22;13455;51.480;7.594;2023-05-10T01:40:43;13.80;99.90
25568;DHT22;13455;51.480;7.594;2023-05-10T01:43:21;13.80;99.90
25568;DHT22;13455;51.480;7.594;2023-05-10T01:48:27;13.80;99.90
25568;DHT22;13455;51.480;7.594;2023-05-10T01:50:54;13.80;99.90
25568;DHT22;13455;51.480;7.594;2023-05-10T01:53:21;13.80;99.90
25568;DHT22;13455;51.480;7.594;2023-05-10T01:58:21;13.80;99.90
25568;DHT22;13455;51.480;7.594;2023-05-10T02:00:49;13.90;99.90
25568;DHT22;13455;51.480;7.594;2023-05-10T02:03:18;14.30;99.90
25568;DHT22;13455;51.480;7.594;2023-05-10T02:05:46;13.90;99.90
25568;DHT22;13455;51.480;7.594;2023-05-10T02:30:13;14.10;99.90
25568;DHT22;13455;51.480;7.594;2023-05-10T02:35:09;13.80;99.90
25568;DHT22;13455;51.480;7.594;2023-05-10T02:37:37;13.70;99.90
25568;DHT22;13455;51.480;7.594;2023-05-10T02:40:06;13.80;99.90
25568;DHT22;13455;51.480;7.594;2023-05-10T02:45:04;13.50;99.90
25568;DHT22;13455;51.480;7.594;2023-05-10T02:55:01;13.80;99.90
25568;DHT22;13455;51.480;7.594;2023-05-10T02:57:33;14.10;99.90
25568;DHT22;13455;51.480;7.594;2023-05-10T03:04:55;13.70;99.90
25568;DHT22;13455;51.480;7.594;2023-05-10T03:07:21;13.60;99.90
25568;DHT22;13455;51.480;7.594;2023-05-10T03:09:48;13.90;99.90
25568;DHT22;13455;51.480;7.594;2023-05-10T03:20:56;13.60;99.90
25568;DHT22;13455;51.480;7.594;2023-05-10T03:23:27;14.10;99.90
25568;DHT22;13455;51.480;7.594;2023-05-10T03:25:55;13.70;99.90
25568;DHT22;13455;51.480;7.594;2023-05-10T03:28:21;13.70;99.90
25568;DHT22;13455;51.480;7.594;2023-05-10T03:30:52;13.70;99.90
25568;DHT22;13455;51.480;7.594;2023-05-10T03:33:19;13.80;99.90
25568;DHT22;13455;51.480;7.594;2023-05-10T03:38:12;13.70;99.90
25568;DHT22;13455;51.480;7.594;2023-05-10T03:40:37;13.90;99.90
25568;DHT22;13455;51.480;7.594;2023-05-10T03:45:30;13.60;99.90
25568;DHT22;13455;51.480;7.594;2023-05-10T03:47:57;13.30;99.90
25568;DHT22;13455;51.480;7.594;2023-05-10T03:50:22;13.70;99.90
25568;DHT22;13455;51.480;7.594;2023-05-10T04:05:06;13.50;99.90
25568;DHT22;13455;51.480;7.594;2023-05-10T04:07:31;13.50;99.90
25568;DHT22;13455;51.480;7.594;2023-05-10T04:09:57;13.50;99.90
25568;DHT22;13455;51.480;7.594;2023-05-10T04:12:23;13.70;99.90
25568;DHT22;13455;51.480;7.594;2023-05-10T04:14:48;13.60;99.90
25568;DHT22;13455;51.480;7.594;2023-05-10T04:17:14;13.40;99.90
25568;DHT22;13455;51.480;7.594;2023-05-10T04:19:39;13.70;99.90
25568;DHT22;13455;51.480;7.594;2023-05-10T04:22:05;13.70;99.90
25568;DHT22;13455;51.480;7.594;2023-05-10T04:24:31;13.50;99.90
25568;DHT22;13455;51.480;7.594;2023-05-10T04:26:56;13.60;99.90
25568;DHT22;13455;51.480;7.594;2023-05-10T04:29:22;13.50;99.90
25568;DHT22;13455;51.480;7.594;2023-05-10T04:31:47;13.70;99.90
25568;DHT22;13455;51.480;7.594;2023-05-10T04:34:14;13.50;99.90
25568;DHT22;13455;51.480;7.594;2023-05-10T04:36:39;13.90;99.90
25568;DHT22;13455;51.480;7.594;2023-05-10T04:39:05;13.60;99.90
25568;DHT22;13455;51.480;7.594;2023-05-10T04:41:30;13.40;99.90
25568;DHT22;13455;51.480;7.594;2023-05-10T04:43:56;13.60;99.90
25568;DHT22;13455;51.480;7.594;2023-05-10T04:46:22;13.50;99.90
25568;DHT22;13455;51.480;7.594;2023-05-10T04:48:47;13.60;99.90
25568;DHT22;13455;51.480;7.594;2023-05-10T04:51:13;13.80;99.90
25568;DHT22;13455;51.480;7.594;2023-05-10T04:53:39;13.80;99.90
25568;DHT22;13455;51.480;7.594;2023-05-10T04:56:05;13.70;99.90
25568;DHT22;13455;51.480;7.594;2023-05-10T04:58:30;13.50;99.90
25568;DHT22;13455;51.480;7.594;2023-05-10T05:00:56;13.70;99.90
25568;DHT22;13455;51.480;7.594;2023-05-10T05:03:22;13.70;99.90
25568;DHT22;13455;51.480;7.594;2023-05-10T05:05:47;13.50;99.90
25568;DHT22;13455;51.480;7.594;2023-05-10T05:08:13;13.70;99.90
25568;DHT22;13455;51.480;7.594;2023-05-10T05:10:39;13.70;99.90
25568;DHT22;13455;51.480;7.594;2023-05-10T05:13:05;13.90;99.90
25568;DHT22;13455;51.480;7.594;2023-05-10T05:15:30;13.50;99.90
25568;DHT22;13455;51.480;7.594;2023-05-10T05:17:56;13.50;99.90
25568;DHT22;13455;51.480;7.594;2023-05-10T05:20:22;13.70;99.90
25568;DHT22;13455;51.480;7.594;2023-05-10T05:22:48;13.50;99.90
25568;DHT22;13455;51.480;7.594;2023-05-10T05:25:13;13.70;99.90
25568;DHT22;13455;51.480;7.594;2023-05-10T05:27:40;13.50;99.90
25568;DHT22;13455;51.480;7.594;2023-05-10T05:30:06;13.90;99.90
25568;DHT22;13455;51.480;7.594;2023-05-10T05:32:32;13.50;99.90
25568;DHT22;13455;51.480;7.594;2023-05-10T05:34:58;13.70;99.90
25568;DHT22;13455;51.480;7.594;2023-05-10T05:37:23;13.80;99.90
25568;DHT22;13455;51.480;7.594;2023-05-10T05:39:50;13.50;99.90
25568;DHT22;13455;51.480;7.594;2023-05-10T05:42:15;13.80;99.90
25568;DHT22;13455;51.480;7.594;2023-05-10T05:44:43;13.80;99.90
25568;DHT22;13455;51.480;7.594;2023-05-10T05:47:09;13.90;99.90
25568;DHT22;13455;51.480;7.594;2023-05-10T05:49:34;13.60;99.90
25568;DHT22;13455;51.480;7.594;2023-05-10T05:52:01;14.00;99.90
25568;DHT22;13455;51.480;7.594;2023-05-10T05:54:27;13.60;99.90
25568;DHT22;13455;51.480;7.594;2023-05-10T05:56:57;13.70;99.90
25568;DHT22;13455;51.480;7.594;2023-05-10T05:59:23;13.90;99.90
25568;DHT22;13455;51.480;7.594;2023-05-10T06:01:49;13.70;99.90
25568;DHT22;13455;51.480;7.594;2023-05-10T06:04:14;14.00;99.90
25568;DHT22;13455;51.480;7.594;2023-05-10T06:06:40;14.10;99.90
25568;DHT22;13455;51.480;7.594;2023-05-10T06:09:06;13.80;99.90
25568;DHT22;13455;51.480;7.594;2023-05-10T06:11:31;13.80;99.90
25568;DHT22;13455;51.480;7.594;2023-05-10T06:14:00;13.80;99.90
25568;DHT22;13455;51.480;7.594;2023-05-10T06:16:27;13.80;99.90
25568;DHT22;13455;51.480;7.594;2023-05-10T06:18:53;13.80;99.90
25568;DHT22;13455;51.480;7.594;2023-05-10T06:21:18;14.20;99.90
25568;DHT22;13455;51.480;7.594;2023-05-10T06:23:44;14.10;99.90
25568;DHT22;13455;51.480;7.594;2023-05-10T06:26:10;14.10;99.90
25568;DHT22;13455;51.480;7.594;2023-05-10T06:28:35;14.00;99.90
25568;DHT22;13455;51.480;7.594;2023-05-10T06:31:03;14.20;99.90
25568;DHT22;13455;51.480;7.594;2023-05-10T06:33:29;14.10;99.90
25568;DHT22;13455;51.480;7.594;2023-05-10T06:35:55;14.30;99.90
25568;DHT22;13455;51.480;7.594;2023-05-10T06:38:21;14.20;99.90
25568;DHT22;13455;51.480;7.594;2023-05-10T06:40:47;14.30;99.90
25568;DHT22;13455;51.480;7.594;2023-05-10T06:43:12;14.30;99.90
25568;DHT22;13455;51.480;7.594;2023-05-10T06:45:38;14.60;99.90
25568;DHT22;13455;51.480;7.594;2023-05-10T06:57:47;14.60;99.90
25568;DHT22;13455;51.480;7.594;2023-05-10T07:00:14;14.50;99.90
25568;DHT22;13455;51.480;7.594;2023-05-10T07:02:40;14.50;99.90
25568;DHT22;13455;51.480;7.594;2023-05-10T07:05:06;14.60;99.90
25568;DHT22;13455;51.480;7.594;2023-05-10T07:07:31;14.50;99.90
25568;DHT22;13455;51.480;7.594;2023-05-10T07:09:57;14.50;99.90
25568;DHT22;13455;51.480;7.594;2023-05-10T07:12:23;14.70;99.90
25568;DHT22;13455;51.480;7.594;2023-05-10T07:14:49;14.50;99.90
25568;DHT22;13455;51.480;7.594;2023-05-10T07:17:15;14.60;99.90
25568;DHT22;13455;51.480;7.594;2023-05-10T07:19:41;14.60;99.90
25568;DHT22;13455;51.480;7.594;2023-05-10T07:22:06;14.70;99.90
25568;DHT22;13455;51.480;7.594;2023-05-10T07:24:33;14.60;99.90
25568;DHT22;13455;51.480;7.594;2023-05-10T07:26:59;14.80;99.90
25568;DHT22;13455;51.480;7.594;2023-05-10T07:29:24;14.80;99.90
25568;DHT22;13455;51.480;7.594;2023-05-10T07:31:50;15.00;99.90
25568;DHT22;13455;51.480;7.594;2023-05-10T07:34:17;15.10;99.90
25568;DHT22;13455;51.480;7.594;2023-05-10T07:36:43;15.40;99.90
25568;DHT22;13455;51.480;7.594;2023-05-10T07:39:08;15.60;99.90
25568;DHT22;13455;51.480;7.594;2023-05-10T08:03:49;16.80;99.90
25568;DHT22;13455;51.480;7.594;2023-05-10T08:06:17;17.10;99.90
25568;DHT22;13455;51.480;7.594;2023-05-10T08:08:43;17.00;99.90
25568;DHT22;13455;51.480;7.594;2023-05-10T08:11:11;17.20;99.90
25568;DHT22;13455;51.480;7.594;2023-05-10T08:13:36;17.60;99.90
25568;DHT22;13455;51.480;7.594;2023-05-10T08:16:02;17.70;99.90
25568;DHT22;13455;51.480;7.594;2023-05-10T08:18:28;17.90;99.90
25568;DHT22;13455;51.480;7.594;2023-05-10T08:20:53;17.70;99.90
25568;DHT22;13455;51.480;7.594;2023-05-10T08:23:19;17.60;99.90
25568;DHT22;13455;51.480;7.594;2023-05-10T08:25:45;17.50;99.90
25568;DHT22;13455;51.480;7.594;2023-05-10T08:28:10;17.60;99.90
25568;DHT22;13455;51.480;7.594;2023-05-10T08:30:36;17.50;99.90
25568;DHT22;13455;51.480;7.594;2023-05-10T08:33:01;17.70;99.90
25568;DHT22;13455;51.480;7.594;2023-05-10T08:35:27;17.60;99.90
25568;DHT22;13455;51.480;7.594;2023-05-10T08:37:52;17.70;99.90
25568;DHT22;13455;51.480;7.594;2023-05-10T08:40:19;17.70;99.90
25568;DHT22;13455;51.480;7.594;2023-05-10T08:42:53;17.90;99.90
25568;DHT22;13455;51.480;7.594;2023-05-10T08:45:23;17.90;99.90
25568;DHT22;13455;51.480;7.594;2023-05-10T08:47:50;17.90;99.90
25568;DHT22;13455;51.480;7.594;2023-05-10T08:50:19;17.90;99.90
25568;DHT22;13455;51.480;7.594;2023-05-10T08:52:47;18.10;99.90
25568;DHT22;13455;51.480;7.594;2023-05-10T08:55:14;18.20;99.90
25568;DHT22;13455;51.480;7.594;2023-05-10T08:57:40;19.40;99.90
25568;DHT22;13455;51.480;7.594;2023-05-10T09:00:06;18.20;99.90
25568;DHT22;13455;51.480;7.594;2023-05-10T09:02:34;18.50;99.90
25568;DHT22;13455;51.480;7.594;2023-05-10T09:04:59;18.60;99.90
25568;DHT22;13455;51.480;7.594;2023-05-10T09:07:25;18.60;99.90
25568;DHT22;13455;51.480;7.594;2023-05-10T09:09:52;18.60;99.90
25568;DHT22;13455;51.480;7.594;2023-05-10T09:12:18;18.70;99.90
25568;DHT22;13455;51.480;7.594;2023-05-10T09:14:44;18.80;99.90
25568;DHT22;13455;51.480;7.594;2023-05-10T09:17:10;18.80;99.90
25568;DHT22;13455;51.480;7.594;2023-05-10T09:19:36;18.60;99.90
25568;DHT22;13455;51.480;7.594;2023-05-10T09:22:03;18.70;99.90
25568;DHT22;13455;51.480;7.594;2023-05-10T09:24:29;18.90;99.90
25568;DHT22;13455;51.480;7.594;2023-05-10T09:26:56;19.00;99.90
25568;DHT22;13455;51.480;7.594;2023-05-10T09:29:22;19.00;99.90
25568;DHT22;13455;51.480;7.594;2023-05-10T09:31:52;19.60;99.90
25568;DHT22;13455;51.480;7.594;2023-05-10T09:34:30;19.20;99.90
25568;DHT22;13455;51.480;7.594;2023-05-10T09:37:01;19.30;99.90
25568;DHT22;13455;51.480;7.594;2023-05-10T09:39:34;19.30;99.90
25568;DHT22;13455;51.480;7.594;2023-05-10T09:42:06;19.40;99.90
25568;DHT22;13455;51.480;7.594;2023-05-10T09:44:32;19.50;99.90
25568;DHT22;13455;51.480;7.594;2023-05-10T09:46:59;19.70;99.90
25568;DHT22;13455;51.480;7.594;2023-05-10T09:49:24;19.70;99.90
25568;DHT22;13455;51.480;7.594;2023-05-10T09:52:07;19.80;99.90
25568;DHT22;13455;51.480;7.594;2023-05-10T09:54:33;20.10;99.90
25568;DHT22;13455;51.480;7.594;2023-05-10T09:59:27;20.20;99.90
25568;DHT22;13455;51.480;7.594;2023-05-10T10:01:56;20.20;99.90
25568;DHT22;13455;51.480;7.594;2023-05-10T10:04:22;20.50;99.90
25568;DHT22;13455;51.480;7.594;2023-05-10T10:07:02;20.50;99.90
25568;DHT22;13455;51.480;7.594;2023-05-10T10:09:28;20.70;99.90
25568;DHT22;13455;51.480;7.594;2023-05-10T10:11:54;20.70;99.90
25568;DHT22;13455;51.480;7.594;2023-05-10T10:14:22;20.80;99.90
25568;DHT22;13455;51.480;7.594;2023-05-10T10:24:07;21.50;99.90
25568;DHT22;13455;51.480;7.594;2023-05-10T10:29:36;21.50;99.90
25568;DHT22;13455;51.480;7.594;2023-05-10T10:37:15;21.80;99.90
25568;DHT22;13455;51.480;7.594;2023-05-10T10:39:41;21.80;99.90
25568;DHT22;13455;51.480;7.594;2023-05-10T10:42:06;21.90;99.90
25568;DHT22;13455;51.480;7.594;2023-05-10T10:50:08;22.10;99.90
25568;DHT22;13455;51.480;7.594;2023-05-10T11:02:51;22.50;99.90
25568;DHT22;13455;51.480;7.594;2023-05-10T11:05:36;22.40;99.90
25568;DHT22;13455;51.480;7.594;2023-05-10T11:08:31;22.40;99.90
25568;DHT22;13455;51.480;7.594;2023-05-10T11:13:29;22.50;99.90
25568;DHT22;13455;51.480;7.594;2023-05-10T11:15:56;22.40;99.90
25568;DHT22;13455;51.480;7.594;2023-05-10T11:21:01;22.20;99.90
25568;DHT22;13455;51.480;7.594;2023-05-10T11:26:12;22.10;99.90
25568;DHT22;13455;51.480;7.594;2023-05-10T11:28:49;22.10;99.90
25568;DHT22;13455;51.480;7.594;2023-05-10T11:31:17;22.00;99.90
25568;DHT22;13455;51.480;7.594;2023-05-10T11:33:50;22.00;99.90
25568;DHT22;13455;51.480;7.594;2023-05-10T11:36:21;22.00;99.90
25568;DHT22;13455;51.480;7.594;2023-05-10T11:38:47;21.90;99.90
25568;DHT22;13455;51.480;7.594;2023-05-10T11:41:14;21.90;99.90
25568;DHT22;13455;51.480;7.594;2023-05-10T11:43:41;22.00;99.90
25568;DHT22;13455;51.480;7.594;2023-05-10T11:46:11;22.00;99.90
25568;DHT22;13455;51.480;7.594;2023-05-10T11:48:39;21.90;99.90
25568;DHT22;13455;51.480;7.594;2023-05-10T11:51:06;22.20;99.90
25568;DHT22;13455;51.480;7.594;2023-05-10T11:53:33;22.30;99.90
25568;DHT22;13455;51.480;7.594;2023-05-10T11:56:09;22.30;99.90
25568;DHT22;13455;51.480;7.594;2023-05-10T11:58:38;22.40;99.90
25568;DHT22;13455;51.480;7.594;2023-05-10T12:01:05;22.40;99.90
25568;DHT22;13455;51.480;7.594;2023-05-10T12:05:59;22.40;99.90
25568;DHT22;13455;51.480;7.594;2023-05-10T12:08:26;22.30;99.90
25568;DHT22;13455;51.480;7.594;2023-05-10T12:13:20;22.30;99.90
25568;DHT22;13455;51.480;7.594;2023-05-10T12:15:46;22.40;99.90
25568;DHT22;13455;51.480;7.594;2023-05-10T12:18:13;22.50;99.90
25568;DHT22;13455;51.480;7.594;2023-05-10T12:20:40;22.50;99.90
25568;DHT22;13455;51.480;7.594;2023-05-10T12:23:08;22.60;99.90
25568;DHT22;13455;51.480;7.594;2023-05-10T12:25:35;22.60;99.90
25568;DHT22;13455;51.480;7.594;2023-05-10T12:28:07;22.50;99.90
25568;DHT22;13455;51.480;7.594;2023-05-10T12:30:34;22.70;99.90
25568;DHT22;13455;51.480;7.594;2023-05-10T12:33:11;22.50;99.90
25568;DHT22;13455;51.480;7.594;2023-05-10T12:35:51;22.50;99.90
25568;DHT22;13455;51.480;7.594;2023-05-10T12:38:28;22.30;99.90
25568;DHT22;13455;51.480;7.594;2023-05-10T12:41:00;22.20;99.90
25568;DHT22;13455;51.480;7.594;2023-05-10T12:43:26;22.20;99.90
25568;DHT22;13455;51.480;7.594;2023-05-10T12:45:51;22.20;99.90
25568;DHT22;13455;51.480;7.594;2023-05-10T12:48:17;22.30;99.90
25568;DHT22;13455;51.480;7.594;2023-05-10T12:50:43;22.10;99.90
25568;DHT22;13455;51.480;7.594;2023-05-10T12:53:08;22.50;99.90
25568;DHT22;13455;51.480;7.594;2023-05-10T12:58:00;22.80;99.90
25568;DHT22;13455;51.480;7.594;2023-05-10T13:00:26;22.90;99.90
25568;DHT22;13455;51.480;7.594;2023-05-10T13:05:18;23.00;99.90
25568;DHT22;13455;51.480;7.594;2023-05-10T13:07:43;22.90;99.90
25568;DHT22;13455;51.480;7.594;2023-05-10T13:10:10;22.90;99.90
25568;DHT22;13455;51.480;7.594;2023-05-10T13:12:35;22.90;99.90
25568;DHT22;13455;51.480;7.594;2023-05-10T13:15:01;22.90;99.90
25568;DHT22;13455;51.480;7.594;2023-05-10T13:17:28;22.90;99.90
25568;DHT22;13455;51.480;7.594;2023-05-10T13:19:54;22.80;99.90
25568;DHT22;13455;51.480;7.594;2023-05-10T13:22:19;22.70;99.90
25568;DHT22;13455;51.480;7.594;2023-05-10T13:24:45;22.80;99.90
25568;DHT22;13455;51.480;7.594;2023-05-10T13:27:11;23.10;99.90
25568;DHT22;13455;51.480;7.594;2023-05-10T13:29:36;23.40;99.90
25568;DHT22;13455;51.480;7.594;2023-05-10T13:32:02;23.70;99.90
25568;DHT22;13455;51.480;7.594;2023-05-10T13:34:27;23.70;99.90
25568;DHT22;13455;51.480;7.594;2023-05-10T13:36:53;23.70;99.90
25568;DHT22;13455;51.480;7.594;2023-05-10T13:39:21;23.70;99.90
25568;DHT22;13455;51.480;7.594;2023-05-10T13:41:46;23.70;99.90
25568;DHT22;13455;51.480;7.594;2023-05-10T13:46:41;23.80;99.90
25568;DHT22;13455;51.480;7.594;2023-05-10T14:01:18;24.30;99.90
25568;DHT22;13455;51.480;7.594;2023-05-10T14:03:44;24.40;99.90
25568;DHT22;13455;51.480;7.594;2023-05-10T14:11:02;25.20;99.90
25568;DHT22;13455;51.480;7.594;2023-05-10T14:13:28;25.40;99.90
25568;DHT22;13455;51.480;7.594;2023-05-10T14:28:06;25.90;98.00
25568;DHT22;13455;51.480;7.594;2023-05-10T14:30:32;25.90;98.20
25568;DHT22;13455;51.480;7.594;2023-05-10T14:32:59;26.00;98.40
25568;DHT22;13455;51.480;7.594;2023-05-10T14:35:26;26.10;97.70
25568;DHT22;13455;51.480;7.594;2023-05-10T14:37:52;26.20;99.90
25568;DHT22;13455;51.480;7.594;2023-05-10T14:54:55;26.70;93.60
25568;DHT22;13455;51.480;7.594;2023-05-10T14:57:21;26.60;92.90
25568;DHT22;13455;51.480;7.594;2023-05-10T14:59:46;26.40;92.60
25568;DHT22;13455;51.480;7.594;2023-05-10T15:02:13;26.30;92.50
25568;DHT22;13455;51.480;7.594;2023-05-10T15:04:38;26.10;92.70
25568;DHT22;13455;51.480;7.594;2023-05-10T15:14:23;26.90;93.80
25568;DHT22;13455;51.480;7.594;2023-05-10T15:16:48;26.90;94.00
25568;DHT22;13455;51.480;7.594;2023-05-10T15:19:14;27.20;92.80
25568;DHT22;13455;51.480;7.594;2023-05-10T15:24:08;28.80;92.40
25568;DHT22;13455;51.480;7.594;2023-05-10T15:33:57;30.20;75.90
25568;DHT22;13455;51.480;7.594;2023-05-10T15:36:23;30.00;93.20
25568;DHT22;13455;51.480;7.594;2023-05-10T15:38:49;29.50;76.10
25568;DHT22;13455;51.480;7.594;2023-05-10T15:41:15;29.20;75.00
25568;DHT22;13455;51.480;7.594;2023-05-10T15:43:40;29.10;84.00
25568;DHT22;13455;51.480;7.594;2023-05-10T15:46:06;29.50;81.60
25568;DHT22;13455;51.480;7.594;2023-05-10T16:17:46;27.10;72.00
25568;DHT22;13455;51.480;7.594;2023-05-10T16:20:12;27.00;72.70
25568;DHT22;13455;51.480;7.594;2023-05-10T16:27:30;26.70;74.40
25568;DHT22;13455;51.480;7.594;2023-05-10T16:29:58;26.50;75.00
25568;DHT22;13455;51.480;7.594;2023-05-10T16:34:50;26.10;99.90
25568;DHT22;13455;51.480;7.594;2023-05-10T16:54:19;24.70;91.70
25568;DHT22;13455;51.480;7.594;2023-05-10T17:08:57;24.00;87.90
25568;DHT22;13455;51.480;7.594;2023-05-10T17:11:22;23.90;88.70
25568;DHT22;13455;51.480;7.594;2023-05-10T17:13:48;23.80;88.60
25568;DHT22;13455;51.480;7.594;2023-05-10T17:18:40;23.30;97.80
25568;DHT22;13455;51.480;7.594;2023-05-10T17:23:33;23.20;90.90
25568;DHT22;13455;51.480;7.594;2023-05-10T17:30:56;22.80;91.50
25568;DHT22;13455;51.480;7.594;2023-05-10T17:33:22;22.80;92.00
25568;DHT22;13455;51.480;7.594;2023-05-10T17:35:47;22.40;92.10
25568;DHT22;13455;51.480;7.594;2023-05-10T17:38:13;22.30;93.80
25568;DHT22;13455;51.480;7.594;2023-05-10T17:40:42;22.30;93.90
25568;DHT22;13455;51.480;7.594;2023-05-10T17:43:08;22.20;94.50
25568;DHT22;13455;51.480;7.594;2023-05-10T17:47:59;22.00;96.80
25568;DHT22;13455;51.480;7.594;2023-05-10T17:50:25;21.80;95.00
25568;DHT22;13455;51.480;7.594;2023-05-10T18:07:30;21.30;99.90
25568;DHT22;13455;51.480;7.594;2023-05-10T18:09:56;21.00;99.30
25568;DHT22;13455;51.480;7.594;2023-05-10T18:12:22;20.70;99.90
25568;DHT22;13455;51.480;7.594;2023-05-10T18:14:48;20.50;99.90
25568;DHT22;13455;51.480;7.594;2023-05-10T18:17:14;20.30;99.90
25568;DHT22;13455;51.480;7.594;2023-05-10T18:19:40;20.00;99.90
25568;DHT22;13455;51.480;7.594;2023-05-10T18:22:05;19.80;99.90
25568;DHT22;13455;51.480;7.594;2023-05-10T18:24:32;19.40;99.90
25568;DHT22;13455;51.480;7.594;2023-05-10T18:26:57;19.40;99.90
25568;DHT22;13455;51.480;7.594;2023-05-10T18:31:49;19.00;99.90
25568;DHT22;13455;51.480;7.594;2023-05-10T18:34:15;18.80;99.90
25568;DHT22;13455;51.480;7.594;2023-05-10T18:39:08;18.80;99.90
25568;DHT22;13455;51.480;7.594;2023-05-10T18:41:35;18.50;99.90
25568;DHT22;13455;51.480;7.594;2023-05-10T18:44:00;18.20;99.90
25568;DHT22;13455;51.480;7.594;2023-05-10T18:46:26;18.20;99.90
25568;DHT22;13455;51.480;7.594;2023-05-10T18:48:53;18.00;99.90
25568;DHT22;13455;51.480;7.594;2023-05-10T18:53:46;18.00;99.90
25568;DHT22;13455;51.480;7.594;2023-05-10T18:56:12;17.70;99.90
25568;DHT22;13455;51.480;7.594;2023-05-10T18:58:38;17.70;99.90
25568;DHT22;13455;51.480;7.594;2023-05-10T19:01:03;17.50;99.90
25568;DHT22;13455;51.480;7.594;2023-05-10T19:03:29;17.60;99.90
25568;DHT22;13455;51.480;7.594;2023-05-10T19:05:55;17.50;99.90
25568;DHT22;13455;51.480;7.594;2023-05-10T19:08:21;18.40;99.90
25568;DHT22;13455;51.480;7.594;2023-05-10T19:27:54;17.40;99.90
25568;DHT22;13455;51.480;7.594;2023-05-10T19:30:22;16.90;99.90
25568;DHT22;13455;51.480;7.594;2023-05-10T19:37:40;16.90;99.90
25568;DHT22;13455;51.480;7.594;2023-05-10T19:40:11;16.80;99.90
25568;DHT22;13455;51.480;7.594;2023-05-10T19:47:29;16.50;99.90
25568;DHT22;13455;51.480;7.594;2023-05-10T19:49:55;16.50;99.90
25568;DHT22;13455;51.480;7.594;2023-05-10T19:52:20;16.50;99.90
25568;DHT22;13455;51.480;7.594;2023-05-10T19:57:14;16.50;99.90
25568;DHT22;13455;51.480;7.594;2023-05-10T19:59:40;16.50;99.90
25568;DHT22;13455;51.480;7.594;2023-05-10T20:02:05;16.50;99.90
25568;DHT22;13455;51.480;7.594;2023-05-10T20:04:31;16.40;99.90
25568;DHT22;13455;51.480;7.594;2023-05-10T20:06:58;16.40;99.90
25568;DHT22;13455;51.480;7.594;2023-05-10T20:09:23;16.30;99.90
25568;DHT22;13455;51.480;7.594;2023-05-10T20:11:49;16.30;99.90
25568;DHT22;13455;51.480;7.594;2023-05-10T20:58:05;16.10;99.90
25568;DHT22;13455;51.480;7.594;2023-05-10T21:00:30;15.80;99.90
25568;DHT22;13455;51.480;7.594;2023-05-10T21:02:56;15.80;99.90
25568;DHT22;13455;51.480;7.594;2023-05-10T21:05:22;15.70;99.90
25568;DHT22;13455;51.480;7.594;2023-05-10T21:07:47;15.70;99.90
25568;DHT22;13455;51.480;7.594;2023-05-10T21:10:13;15.70;99.90
25568;DHT22;13455;51.480;7.594;2023-05-10T21:12:39;15.70;99.90
25568;DHT22;13455;51.480;7.594;2023-05-10T21:15:05;15.00;99.90
25568;DHT22;13455;51.480;7.594;2023-05-10T21:17:31;15.60;99.90
25568;DHT22;13455;51.480;7.594;2023-05-10T21:19:57;15.50;99.90
25568;DHT22;13455;51.480;7.594;2023-05-10T21:22:22;15.50;99.90
25568;DHT22;13455;51.480;7.594;2023-05-10T21:24:48;15.40;99.90
25568;DHT22;13455;51.480;7.594;2023-05-10T21:27:13;15.40;99.90
25568;DHT22;13455;51.480;7.594;2023-05-10T21:29:39;15.40;99.90
25568;DHT22;13455;51.480;7.594;2023-05-10T21:32:05;15.40;99.90
25568;DHT22;13455;51.480;7.594;2023-05-10T21:34:30;15.40;99.90
25568;DHT22;13455;51.480;7.594;2023-05-10T21:36:56;16.10;99.90
25568;DHT22;13455;51.480;7.594;2023-05-10T21:44:14;15.40;99.90
25568;DHT22;13455;51.480;7.594;2023-05-10T21:49:06;15.50;99.90
25568;DHT22;13455;51.480;7.594;2023-05-10T21:51:32;15.10;99.90
25568;DHT22;13455;51.480;7.594;2023-05-10T21:53:58;15.30;99.90
25568;DHT22;13455;51.480;7.594;2023-05-10T21:56:23;15.40;99.90
25568;DHT22;13455;51.480;7.594;2023-05-10T21:58:49;15.20;99.90
25568;DHT22;13455;51.480;7.594;2023-05-10T22:01:15;15.20;99.90
25568;DHT22;13455;51.480;7.594;2023-05-10T22:03:42;15.20;99.90
25568;DHT22;13455;51.480;7.594;2023-05-10T22:06:08;15.30;99.90
25568;DHT22;13455;51.480;7.594;2023-05-10T22:08:33;15.00;99.90
25568;DHT22;13455;51.480;7.594;2023-05-10T22:10:59;15.10;99.90
25568;DHT22;13455;51.480;7.594;2023-05-10T22:13:25;15.00;99.90
25568;DHT22;13455;51.480;7.594;2023-05-10T22:15:51;14.90;99.90
25568;DHT22;13455;51.480;7.594;2023-05-10T22:18:16;14.90;99.90